Time;durP1;ratioP1;P1;durP2;ratioP2;P2;SDS_P1;SDS_P2;PMS_P1;PMS_P2;Temp;Humidity;BMP_temperature;BMP_pressure;BME280_temperature;BME280_humidity;BME280_pressure;Samples;Min_cycle;Max_cycle;Signal;HPM_P1;HPM_P2
2023/04/09 00:05:55;;;;;;;5.30;2.03;;;16.60;34.80;;;;;;20840057;28;20049;-55
2023/04/09 00:15:56;;;;;;;5.60;2.33;;;16.20;36.10;;;;;;20837558;28;20053;-56
2023/04/09 00:25:57;;;;;;;5.68;2.75;;;15.90;36.50;;;;;;20838456;28;20053;-57
2023/04/09 00:35:58;;;;;;;4.93;1.75;;;15.80;37.00;;;;;;20837114;28;20068;-56
2023/04/09 00:46:00;;;;;;;4.90;2.10;;;15.70;36.60;;;;;;20835691;28;20041;-55
2023/04/09 00:56:02;;;;;;;5.90;2.63;;;15.70;37.10;;;;;;20835598;28;20104;-57
2023/04/09 01:06:04;;;;;;;4.80;1.90;;;15.60;37.80;;;;;;20835107;28;20045;-60
2023/04/09 01:16:06;;;;;;;5.43;2.20;;;15.40;38.00;;;;;;20833846;28;20053;-57
2023/04/09 01:26:35;;;;;;;3.38;1.90;;;15.30;37.90;;;;;;20833924;28;20475;-56
2023/04/09 01:36:39;;;;;;;5.07;2.03;;;15.30;37.90;;;;;;20833023;28;20053;-57
2023/04/09 01:46:41;;;;;;;;;;;15.10;37.70;;;;;;20833086;28;20518;-56
2023/04/09 01:56:44;;;;;;;5.07;1.75;;;15.00;37.60;;;;;;20830816;28;19921;-57
2023/04/09 02:07:03;;;;;;;6.70;1.90;;;14.90;38.70;;;;;;20831437;28;20410;-56
2023/04/09 02:17:05;;;;;;;5.45;2.00;;;14.80;38.60;;;;;;20829593;28;20049;-57
2023/04/09 02:27:07;;;;;;;3.92;2.20;;;14.80;38.60;;;;;;20830543;28;20072;-56
2023/04/09 02:37:08;;;;;;;5.70;2.58;;;14.80;39.00;;;;;;20828624;28;20096;-56
2023/04/09 02:47:09;;;;;;;5.30;2.58;;;14.70;39.30;;;;;;20829898;28;20498;-55
2023/04/09 02:57:10;;;;;;;4.13;1.98;;;14.80;39.40;;;;;;20828053;28;20042;-56
2023/04/09 03:07:12;;;;;;;3.17;1.80;;;14.60;39.80;;;;;;20828998;28;20053;-57
2023/04/09 03:17:13;;;;;;;4.57;2.63;;;14.50;40.80;;;;;;20832840;28;20049;-56
2023/04/09 03:27:15;;;;;;;5.55;3.25;;;14.50;40.80;;;;;;20843376;28;20099;-56
2023/04/09 03:37:16;;;;;;;5.53;2.85;;;14.80;40.30;;;;;;20841736;28;20048;-57
2023/04/09 03:47:17;;;;;;;8.63;2.97;;;14.90;40.10;;;;;;20841371;28;20107;-58
2023/04/09 03:57:19;;;;;;;4.30;2.90;;;14.90;40.50;;;;;;20839318;28;20042;-56
2023/04/09 04:07:20;;;;;;;5.90;3.30;;;14.80;40.80;;;;;;20838581;28;20041;-55
2023/04/09 04:17:21;;;;;;;8.77;3.88;;;14.80;39.40;;;;;;20838221;28;20415;-56
2023/04/09 04:27:23;;;;;;;8.43;3.00;;;14.90;38.10;;;;;;20837409;28;20045;-57
2023/04/09 04:37:24;;;;;;;6.30;2.92;;;14.70;40.00;;;;;;20837525;28;20046;-56
2023/04/09 04:47:26;;;;;;;5.57;2.63;;;14.40;42.10;;;;;;20835374;28;20052;-56
2023/04/09 04:57:27;;;;;;;6.38;2.63;;;14.20;42.80;;;;;;20834613;28;20072;-56
2023/04/09 05:07:29;;;;;;;7.60;2.60;;;13.90;43.40;;;;;;20834956;28;20052;-56
2023/04/09 05:17:30;;;;;;;6.78;2.38;;;13.70;44.20;;;;;;20832920;28;20110;-58
2023/04/09 05:27:32;;;;;;;4.32;2.75;;;13.60;45.10;;;;;;20833608;28;20041;-57
2023/04/09 05:37:33;;;;;;;5.03;2.00;;;13.40;45.00;;;;;;20832592;28;20195;-56
2023/04/09 05:47:34;;;;;;;5.18;2.13;;;13.20;45.20;;;;;;20832546;28;20049;-55
2023/04/09 05:57:36;;;;;;;7.30;2.10;;;12.90;46.00;;;;;;20830416;28;20045;-56
2023/04/09 06:07:37;;;;;;;8.73;2.10;;;12.70;46.20;;;;;;20831420;28;20136;-55
2023/04/09 06:17:39;;;;;;;4.38;2.22;;;12.70;46.50;;;;;;20829928;28;20049;-55
2023/04/09 06:27:40;;;;;;;4.60;2.13;;;12.70;46.80;;;;;;20830614;28;20482;-56
2023/04/09 06:37:41;;;;;;;6.10;2.65;;;12.70;46.80;;;;;;20830043;28;20046;-56
2023/04/09 06:47:43;;;;;;;4.63;2.10;;;12.70;46.70;;;;;;20829132;28;20525;-56
2023/04/09 06:57:44;;;;;;;5.88;3.22;;;12.80;46.40;;;;;;20841858;28;20082;-56
2023/04/09 07:07:46;;;;;;;4.70;2.45;;;13.20;45.80;;;;;;20844300;28;20052;-57
2023/04/09 07:17:47;;;;;;;6.20;2.78;;;13.50;44.90;;;;;;20842070;28;20057;-59
2023/04/09 07:27:49;;;;;;;10.63;3.08;;;13.70;45.00;;;;;;20843171;28;20406;-56
2023/04/09 07:37:50;;;;;;;6.40;3.00;;;14.00;44.80;;;;;;20841154;28;20041;-56
2023/04/09 07:47:52;;;;;;;11.52;3.58;;;14.40;44.30;;;;;;20840185;28;20509;-55
2023/04/09 07:57:53;;;;;;;9.55;4.75;;;15.10;42.40;;;;;;20837305;28;20080;-56
2023/04/09 08:07:55;;;;;;;8.35;4.90;;;15.40;41.40;;;;;;20838023;28;20491;-57
2023/04/09 08:17:56;;;;;;;6.70;4.72;;;15.70;40.60;;;;;;20837490;28;20487;-57
2023/04/09 08:27:57;;;;;;;9.23;4.68;;;16.10;39.40;;;;;;20836435;28;20060;-56
2023/04/09 08:37:59;;;;;;;8.70;3.72;;;16.40;38.10;;;;;;20836211;28;20072;-56
2023/04/09 08:48:02;;;;;;;15.68;10.48;;;16.80;37.50;;;;;;20835316;28;20053;-56
2023/04/09 08:58:06;;;;;;;8.50;3.20;;;17.20;37.40;;;;;;20834442;28;20057;-56
2023/04/09 09:08:09;;;;;;;7.97;3.55;;;17.70;37.10;;;;;;20832901;28;20060;-57
2023/04/09 09:18:10;;;;;;;4.50;2.83;;;17.90;37.10;;;;;;20834173;28;20398;-58
2023/04/09 09:28:12;;;;;;;6.70;2.67;;;18.00;37.30;;;;;;20833308;28;20481;-56
2023/04/09 09:38:15;;;;;;;3.92;2.20;;;18.30;37.00;;;;;;20831939;28;20438;-57
2023/04/09 09:48:16;;;;;;;5.25;2.50;;;18.60;36.30;;;;;;20831323;28;20399;-56
2023/04/09 09:58:30;;;;;;;7.25;2.90;;;18.70;36.40;;;;;;20831568;28;20049;-56
2023/04/09 10:08:33;;;;;;;6.45;3.00;;;19.00;36.00;;;;;;20830303;28;20046;-57
2023/04/09 10:18:36;;;;;;;5.83;3.63;;;19.20;35.60;;;;;;20829960;28;20053;-57
2023/04/09 10:28:37;;;;;;;8.45;3.53;;;19.50;35.00;;;;;;20837752;28;20053;-57
2023/04/09 10:38:40;;;;;;;7.78;3.28;;;19.90;34.90;;;;;;20846514;28;20417;-56
2023/04/09 10:48:43;;;;;;;8.20;3.03;;;20.10;33.90;;;;;;20844839;28;20053;-57
2023/04/09 10:58:44;;;;;;;6.17;2.83;;;20.30;32.90;;;;;;20845249;28;20045;-56
2023/04/09 11:08:47;;;;;;;9.65;3.42;;;20.70;32.90;;;;;;20844397;28;20106;-57
2023/04/09 11:18:48;;;;;;;5.63;2.22;;;20.90;32.70;;;;;;20842758;28;20100;-57
2023/04/09 11:28:49;;;;;;;4.60;2.22;;;21.20;31.90;;;;;;20842904;28;20046;-57
2023/04/09 11:38:51;;;;;;;7.35;3.80;;;21.60;31.20;;;;;;20841711;28;20438;-55
2023/04/09 11:48:54;;;;;;;5.68;2.40;;;22.10;31.20;;;;;;20839954;28;20132;-56
2023/04/09 11:58:56;;;;;;;14.05;6.55;;;22.50;29.90;;;;;;20839910;28;20045;-56
2023/04/09 12:08:58;;;;;;;6.50;2.63;;;22.80;29.60;;;;;;20839891;28;20049;-57
2023/04/09 12:19:07;;;;;;;5.70;2.73;;;23.20;27.80;;;;;;20837722;28;20069;-57
2023/04/09 12:29:08;;;;;;;9.95;4.35;;;23.50;27.50;;;;;;20838288;28;20050;-56
2023/04/09 12:39:10;;;;;;;10.00;2.88;;;23.70;27.60;;;;;;20836948;28;20049;-57
2023/04/09 12:49:11;;;;;;;5.32;1.88;;;23.90;26.30;;;;;;20834641;28;20084;-59
2023/04/09 12:59:12;;;;;;;8.45;2.30;;;24.20;25.10;;;;;;20834143;28;20041;-58
2023/04/09 13:09:14;;;;;;;10.25;3.28;;;24.40;24.60;;;;;;20832481;28;20046;-56
2023/04/09 13:19:16;;;;;;;12.77;3.30;;;24.60;24.10;;;;;;20832782;28;20056;-57
2023/04/09 13:29:16;;;;;;;13.48;3.90;;;24.80;23.60;;;;;;20833157;28;20053;-57
2023/04/09 13:39:17;;;;;;;10.10;3.00;;;25.10;23.30;;;;;;20832424;28;20208;-58
2023/04/09 13:49:18;;;;;;;10.98;3.30;;;25.30;23.30;;;;;;20831717;28;20613;-59
2023/04/09 13:59:18;;;;;;;21.77;5.82;;;25.40;23.00;;;;;;20830796;28;20474;-59
2023/04/09 14:09:19;;;;;;;19.70;4.50;;;25.60;22.00;;;;;;20829760;28;20052;-57
2023/04/09 14:19:21;;;;;;;31.58;7.15;;;25.70;22.10;;;;;;20829265;28;20089;-58
2023/04/09 14:29:23;;;;;;;24.42;6.15;;;25.90;20.50;;;;;;20830047;28;20052;-57
2023/04/09 14:39:24;;;;;;;25.40;6.83;;;26.00;20.40;;;;;;20828798;28;20049;-57
2023/04/09 14:49:26;;;;;;;27.85;6.97;;;25.90;20.70;;;;;;20828980;28;20046;-57
2023/04/09 14:59:27;;;;;;;24.07;6.07;;;25.80;20.50;;;;;;20827779;28;20045;-55
2023/04/09 15:09:28;;;;;;;31.67;10.50;;;26.00;20.70;;;;;;20828731;28;20068;-57
2023/04/09 15:19:31;;;;;;;38.33;9.00;;;26.10;20.40;;;;;;20841214;28;20053;-58
2023/04/09 15:29:32;;;;;;;38.20;7.45;;;26.20;19.80;;;;;;20842539;28;20049;-57
2023/04/09 15:39:34;;;;;;;33.83;8.07;;;26.10;19.10;;;;;;20842076;28;20045;-56
2023/04/09 15:49:35;;;;;;;31.15;7.03;;;26.10;19.60;;;;;;20839926;28;20334;-57
2023/04/09 15:59:37;;;;;;;36.27;8.67;;;26.00;19.90;;;;;;20840474;28;20041;-57
2023/04/09 16:09:38;;;;;;;25.70;5.63;;;25.90;20.50;;;;;;20838689;28;20064;-57
2023/04/09 16:19:41;;;;;;;23.17;4.67;;;25.90;21.20;;;;;;20838054;28;20050;-58
2023/04/09 16:29:43;;;;;;;22.75;7.00;;;25.80;22.20;;;;;;20836916;28;20056;-58
2023/04/09 16:39:44;;;;;;;31.43;6.30;;;25.90;21.40;;;;;;20837316;28;20406;-56
2023/04/09 16:49:45;;;;;;;27.90;6.17;;;26.00;21.60;;;;;;20835601;28;20057;-55
2023/04/09 16:59:47;;;;;;;21.57;5.67;;;25.90;21.00;;;;;;20835839;28;20411;-56
2023/04/09 17:09:48;;;;;;;20.60;6.00;;;25.80;20.90;;;;;;20834115;28;20487;-57
2023/04/09 17:19:50;;;;;;;27.25;6.35;;;25.70;21.30;;;;;;20831557;28;20533;-56
2023/04/09 17:29:52;;;;;;;29.97;7.20;;;25.60;21.20;;;;;;20832431;28;20054;-55
2023/04/09 17:39:53;;;;;;;26.83;7.18;;;25.50;21.50;;;;;;20831562;28;20406;-56
2023/04/09 17:49:55;;;;;;;31.13;7.83;;;25.40;21.70;;;;;;20831956;28;20052;-56
2023/04/09 17:59:58;;;;;;;28.73;7.43;;;25.20;22.10;;;;;;20829543;28;20103;-56
2023/04/09 18:10:01;;;;;;;23.23;7.30;;;24.90;22.60;;;;;;20829654;28;20387;-57
2023/04/09 18:20:02;;;;;;;22.30;6.40;;;24.70;22.70;;;;;;20828989;28;20053;-56
2023/04/09 18:30:04;;;;;;;34.30;8.77;;;24.50;23.20;;;;;;20830114;28;20045;-57
2023/04/09 18:40:10;;;;;;;30.98;6.63;;;24.30;23.80;;;;;;20828415;28;20056;-57
2023/04/09 18:50:16;;;;;;;24.38;6.22;;;24.10;24.50;;;;;;20836829;28;20099;-58
2023/04/09 19:00:18;;;;;;;26.52;6.50;;;23.90;25.00;;;;;;20844705;28;20475;-58
2023/04/09 19:10:19;;;;;;;26.83;7.70;;;23.60;25.60;;;;;;20843901;28;20072;-58
2023/04/09 19:20:21;;;;;;;32.25;7.50;;;23.40;26.10;;;;;;20841926;28;20053;-56
2023/04/09 19:30:23;;;;;;;23.50;7.20;;;23.20;26.90;;;;;;20843024;28;20056;-57
2023/04/09 19:40:24;;;;;;;26.35;8.05;;;22.90;27.20;;;;;;20841907;28;20458;-56
2023/04/09 19:50:26;;;;;;;27.98;7.97;;;22.70;27.30;;;;;;20839693;28;20553;-57
2023/04/09 20:00:27;;;;;;;28.85;7.55;;;22.60;27.50;;;;;;20838358;28;20052;-57
2023/04/09 20:10:29;;;;;;;25.60;10.07;;;22.40;27.70;;;;;;20836873;28;20053;-58
2023/04/09 20:20:30;;;;;;;27.83;7.57;;;22.30;27.90;;;;;;20834601;28;20045;-55
2023/04/09 20:30:32;;;;;;;35.75;8.45;;;22.10;27.40;;;;;;20835688;28;20049;-56
2023/04/09 20:40:36;;;;;;;32.10;8.60;;;21.90;27.90;;;;;;20836404;28;20091;-57
2023/04/09 20:50:38;;;;;;;30.70;9.80;;;21.60;28.60;;;;;;20826433;28;20053;-55
2023/04/09 21:00:39;;;;;;;27.73;9.68;;;21.30;28.80;;;;;;20828037;28;20073;-57
2023/04/09 21:10:41;;;;;;;40.25;9.63;;;21.20;29.10;;;;;;20831344;28;20076;-57
2023/04/09 21:20:46;;;;;;;31.98;9.07;;;21.00;28.70;;;;;;20832413;28;20053;-57
2023/04/09 21:30:47;;;;;;;34.42;7.90;;;21.00;28.10;;;;;;20832416;28;20053;-58
2023/04/09 21:40:49;;;;;;;38.10;9.45;;;20.90;28.00;;;;;;20833129;28;20057;-58
2023/04/09 21:50:50;;;;;;;44.60;10.35;;;20.70;28.20;;;;;;20831372;28;20061;-57
2023/04/09 22:00:51;;;;;;;38.38;10.38;;;20.70;28.50;;;;;;20832070;28;20046;-57
2023/04/09 22:10:53;;;;;;;35.63;9.00;;;20.40;29.10;;;;;;20831744;28;20411;-56
2023/04/09 22:20:55;;;;;;;36.25;10.00;;;20.20;29.50;;;;;;20835359;28;20053;-58
2023/04/09 22:30:57;;;;;;;34.50;8.40;;;20.20;29.40;;;;;;20857869;28;20410;-58
2023/04/09 22:41:00;;;;;;;35.67;8.73;;;20.10;29.80;;;;;;20857441;28;20414;-57
2023/04/09 22:51:01;;;;;;;34.93;8.80;;;20.10;29.80;;;;;;20855691;28;20089;-57
2023/04/09 23:01:03;;;;;;;35.65;9.50;;;20.00;29.90;;;;;;20856248;28;20454;-56
2023/04/09 23:11:06;;;;;;;31.30;8.25;;;19.80;30.50;;;;;;20856415;28;20464;-56
2023/04/09 23:21:08;;;;;;;40.23;10.03;;;19.60;31.00;;;;;;20857379;28;20452;-56
2023/04/09 23:31:10;;;;;;;32.60;8.23;;;19.60;31.40;;;;;;20853902;28;20053;-57
2023/04/09 23:41:13;;;;;;;31.83;9.65;;;19.60;31.80;;;;;;20842515;28;20067;-56
2023/04/09 23:51:18;;;;;;;44.23;11.83;;;19.40;32.60;;;;;;20841873;28;20482;-56
